Waltham, United Kingdom
Current Conditions -  °F | °C
As of 11:50 AM on Thursday 18 Dec 2014 (Local Time) from EGXS Reporting Station
Broken Clouds Broken Clouds  
Wind Chill: 57°   Ceiling: 1800
Heat Index: 57°   Visibility: 6mi
Dew Point: 52°   Wind: 25mph
Humidity: 82%   Direction: 210°SSW
Pressure: 29.56"   Gusts: NA
Location:  53.52°N, 0.1°W
Report Text: EGXS 181150Z 21022KT 9999 BKN018 BKN028 14/11 Q1001 WHT
Loading
Personal Weather Stations






























Interactive Weather Map New forecast layout! Learn more

10-Day Weather Forecast

Advertisements
Track Severe Weather on mobile